Terminal Aerodrome Forecast
Issued by NWS

Home | Current Version | Previous Version | Graphics & Text | Print | Product List | Glossary On
Versions: 1 2 3 4 5 6 7 8 9 10 11 12 13 14 15 16 17 18 19 20
000
FTUS43 KFGF 301342 AAB
TAFBJI
TAF AMD
KBJI 301342Z 3014/3112 18007KT P6SM BKN004
     FM301600 17013KT P6SM BKN250
     FM310300 18015KT P6SM BKN200=

USA.gov is the U.S. government's official web portal to all federal, state and local government web resources and services.